Time;durP1;ratioP1;P1;durP2;ratioP2;P2;SDS_P1;SDS_P2;PMS_P1;PMS_P2;Temp;Humidity;BMP_temperature;BMP_pressure;BME280_temperature;BME280_humidity;BME280_pressure;Samples;Min_cycle;Max_cycle;Signal;HPM_P1;HPM_P2
2022/03/18 00:01:29;;;;;;;8.90;2.37;;;;;;;10.02;59.47;102521.31;5131376;27;20246;-64
2022/03/18 00:03:59;;;;;;;9.20;2.30;;;;;;;10.08;59.24;102529.75;5131795;27;20638;-64
2022/03/18 00:06:26;;;;;;;10.03;2.50;;;;;;;9.96;59.33;102533.13;5131886;27;20600;-65
2022/03/18 00:08:54;;;;;;;8.73;2.03;;;;;;;9.80;59.84;102532.38;5132002;27;20303;-65
2022/03/18 00:11:22;;;;;;;9.90;2.47;;;;;;;9.70;59.98;102525.91;5089757;27;20223;-64
2022/03/18 00:13:50;;;;;;;8.90;2.13;;;;;;;9.93;59.53;102529.84;5111156;28;20744;-64
2022/03/18 00:16:18;;;;;;;12.83;2.30;;;;;;;9.74;60.10;102528.31;5110919;28;20298;-64
2022/03/18 00:18:49;;;;;;;9.40;2.20;;;;;;;9.64;61.02;102526.31;5112943;27;20234;-64
2022/03/18 00:21:19;;;;;;;12.50;2.57;;;;;;;9.89;60.00;102525.66;5131810;27;20219;-64
2022/03/18 00:23:46;;;;;;;12.63;2.50;;;;;;;9.97;59.73;102528.69;5131972;27;20254;-64
2022/03/18 00:26:14;;;;;;;8.27;2.23;;;;;;;9.98;59.96;102535.69;5131905;27;20304;-64
2022/03/18 00:28:43;;;;;;;12.00;2.27;;;;;;;10.08;59.37;102535.03;5131263;27;20247;-64
2022/03/18 00:31:12;;;;;;;9.47;2.20;;;;;;;9.99;59.67;102538.25;5128842;27;20638;-65
2022/03/18 00:33:40;;;;;;;10.97;2.37;;;;;;;9.95;59.72;102539.38;5131728;27;20680;-64
2022/03/18 00:36:07;;;;;;;10.20;2.10;;;;;;;10.08;59.61;102544.78;5131264;27;20406;-64
2022/03/18 00:38:37;;;;;;;9.07;2.33;;;;;;;9.78;60.01;102540.41;5130313;27;20227;-65
2022/03/18 00:41:04;;;;;;;11.27;2.23;;;;;;;9.97;60.17;102541.94;5130930;27;20207;-64
2022/03/18 00:43:32;;;;;;;11.60;2.63;;;;;;;9.78;60.33;102537.75;5128882;27;20220;-64
2022/03/18 00:46:00;;;;;;;8.50;2.40;;;;;;;9.97;59.88;102537.50;5131522;27;20242;-65
2022/03/18 00:54:08;;;;;;;13.33;2.60;;;;;;;10.01;59.52;102543.47;5123975;27;20202;-64
2022/03/18 00:56:35;;;;;;;8.13;2.30;;;;;;;10.09;59.78;102543.84;5131081;27;20201;-63
2022/03/18 00:59:03;;;;;;;9.50;2.17;;;;;;;10.03;60.01;102542.41;5131397;27;20261;-64
2022/03/18 01:01:31;;;;;;;17.67;2.93;;;;;;;9.97;60.62;102548.09;5131352;27;20205;-63
2022/03/18 01:03:58;;;;;;;14.43;2.60;;;;;;;10.11;59.93;102547.28;5130533;27;20213;-64
2022/03/18 01:06:26;;;;;;;10.93;2.33;;;;;;;10.12;60.07;102543.63;5130897;27;20240;-65
2022/03/18 01:08:54;;;;;;;11.50;2.53;;;;;;;9.96;60.55;102534.94;5130717;27;20718;-64
2022/03/18 01:11:23;;;;;;;9.10;2.40;;;;;;;10.04;60.25;102538.81;5131082;27;20254;-64
2022/03/18 01:13:51;;;;;;;8.87;2.20;;;;;;;9.97;60.42;102548.09;5130393;27;20252;-64
2022/03/18 01:16:19;;;;;;;9.87;2.90;;;;;;;10.04;60.72;102549.41;5130176;27;20633;-64
2022/03/18 01:18:47;;;;;;;11.90;3.30;;;;;;;9.88;60.91;102543.34;5128694;27;20225;-64
2022/03/18 01:21:14;;;;;;;16.33;3.27;;;;;;;9.96;60.65;102541.09;5110224;28;20216;-64
2022/03/18 01:23:42;;;;;;;10.57;3.20;;;;;;;9.97;60.93;102541.94;5109451;28;20213;-65
2022/03/18 01:26:10;;;;;;;8.90;2.50;;;;;;;9.92;60.98;102534.28;5117661;27;20213;-63
2022/03/18 01:28:39;;;;;;;8.30;2.63;;;;;;;9.77;61.47;102537.84;5122434;27;20221;-64
2022/03/18 01:31:06;;;;;;;11.43;2.90;;;;;;;9.86;60.92;102539.09;5127618;27;20205;-64
2022/03/18 01:33:36;;;;;;;10.87;2.77;;;;;;;9.80;61.33;102532.38;5129274;27;20297;-64
2022/03/18 01:36:03;;;;;;;15.07;2.87;;;;;;;9.96;60.88;102533.13;5107542;27;20295;-64
2022/03/18 01:38:31;;;;;;;11.97;2.47;;;;;;;9.68;61.42;102541.91;5081927;27;20300;-65
2022/03/18 01:40:59;;;;;;;13.73;3.03;;;;;;;9.88;61.10;102540.72;5115721;27;20429;-64
2022/03/18 01:43:27;;;;;;;15.63;2.93;;;;;;;9.98;60.96;102539.22;5118503;27;20205;-64
2022/03/18 01:46:08;;;;;;;15.20;2.50;;;;;;;9.97;61.07;102541.94;5130221;27;20226;-63
2022/03/18 01:48:36;;;;;;;10.27;2.53;;;;;;;10.00;60.80;102544.41;5129654;27;20292;-63
2022/03/18 01:51:05;;;;;;;10.27;2.90;;;;;;;9.86;61.19;102539.94;5130331;27;20612;-64
2022/03/18 01:53:35;;;;;;;12.50;2.93;;;;;;;9.74;61.46;102540.72;5129346;27;20259;-63
2022/03/18 01:56:03;;;;;;;8.20;3.00;;;;;;;9.96;61.01;102538.44;5130626;27;20305;-63
2022/03/18 01:58:31;;;;;;;7.37;2.90;;;;;;;9.83;61.40;102542.81;5129616;27;20197;-63
2022/03/18 02:01:00;;;;;;;10.30;3.10;;;;;;;9.76;61.72;102536.19;5128625;27;20236;-63
2022/03/18 02:03:28;;;;;;;10.23;2.73;;;;;;;9.77;61.84;102545.78;5129449;27;20224;-63
2022/03/18 02:05:58;;;;;;;10.17;2.73;;;;;;;9.77;61.72;102546.66;5129408;27;20543;-64
2022/03/18 02:08:26;;;;;;;10.83;3.03;;;;;;;9.79;61.85;102551.88;5129579;27;20201;-64
2022/03/18 02:10:54;;;;;;;14.77;3.30;;;;;;;9.81;61.39;102553.47;5112641;27;20201;-64
2022/03/18 02:13:22;;;;;;;11.63;2.83;;;;;;;9.79;61.31;102554.50;5112951;27;20237;-64
2022/03/18 02:15:50;;;;;;;12.63;2.33;;;;;;;9.87;61.46;102560.19;5128787;27;20255;-64
2022/03/18 02:18:20;;;;;;;8.80;2.80;;;;;;;9.71;61.79;102557.63;5129334;27;20209;-64
2022/03/18 02:20:47;;;;;;;10.53;3.30;;;;;;;9.75;61.59;102553.00;5129743;27;20856;-64
2022/03/18 02:23:18;;;;;;;10.87;2.87;;;;;;;9.67;61.70;102552.63;5129472;27;20777;-64
2022/03/18 02:25:46;;;;;;;11.07;3.30;;;;;;;9.55;62.12;102559.50;5129771;27;20213;-64
2022/03/18 02:28:14;;;;;;;8.63;2.47;;;;;;;9.61;62.13;102560.91;5129571;27;20212;-64
2022/03/18 02:30:41;;;;;;;10.50;3.37;;;;;;;9.67;61.50;102560.56;5129756;27;20220;-64
2022/03/18 02:33:11;;;;;;;10.37;2.83;;;;;;;9.39;62.39;102550.75;5136645;27;20211;-64
2022/03/18 02:35:42;;;;;;;9.83;3.47;;;;;;;9.63;61.71;102551.09;5135838;27;20210;-64
2022/03/18 02:38:11;;;;;;;11.27;3.27;;;;;;;9.70;61.12;102555.91;5128859;27;20757;-64
2022/03/18 02:40:42;;;;;;;13.27;3.30;;;;;;;9.70;61.22;102550.63;5128823;27;20517;-64
2022/03/18 02:43:10;;;;;;;8.37;3.03;;;;;;;9.48;61.46;102559.94;5129161;27;21090;-64
2022/03/18 02:45:37;;;;;;;11.27;3.07;;;;;;;9.56;61.60;102561.19;5128914;27;20225;-64
2022/03/18 02:48:06;;;;;;;12.97;3.17;;;;;;;9.61;61.03;102560.91;5129021;27;20206;-63
2022/03/18 02:50:35;;;;;;;12.87;2.93;;;;;;;9.39;61.88;102556.91;5128893;27;20302;-63
2022/03/18 02:53:03;;;;;;;14.40;2.60;;;;;;;9.61;61.20;102563.56;5128587;27;20213;-63
2022/03/18 02:55:32;;;;;;;8.77;2.73;;;;;;;9.64;61.41;102558.09;5128659;27;20285;-63
2022/03/18 02:58:01;;;;;;;9.00;3.03;;;;;;;9.68;60.89;102568.41;5128502;27;20285;-63
2022/03/18 03:00:29;;;;;;;9.80;3.20;;;;;;;9.68;60.79;102559.59;5129110;27;20268;-63
2022/03/18 03:02:57;;;;;;;11.70;3.10;;;;;;;9.33;62.03;102562.53;5128534;27;20205;-64
2022/03/18 03:08:12;;;;;;;6.53;2.77;;;;;;;9.36;61.92;102572.97;5128432;27;20669;-64
2022/03/18 03:10:43;;;;;;;17.50;3.97;;;;;;;9.32;62.00;102568.78;5129041;27;20202;-64
2022/03/18 03:13:12;;;;;;;9.70;3.00;;;;;;;9.30;62.12;102568.03;5127855;27;20240;-64
2022/03/18 03:15:40;;;;;;;9.77;3.00;;;;;;;9.40;61.85;102579.78;5129488;27;20193;-64
2022/03/18 03:18:08;;;;;;;15.60;3.20;;;;;;;9.50;61.43;102573.97;5129077;27;20244;-64
2022/03/18 03:20:35;;;;;;;14.07;2.57;;;;;;;9.43;61.87;102584.03;5129336;27;20221;-64
2022/03/18 03:23:03;;;;;;;15.10;3.23;;;;;;;9.50;61.65;102587.22;5128508;28;20743;-64
2022/03/18 03:25:31;;;;;;;14.70;3.10;;;;;;;9.57;61.38;102591.19;5128456;28;20339;-64
2022/03/18 03:27:58;;;;;;;9.83;2.77;;;;;;;9.15;62.48;102595.38;5128142;28;20208;-65
2022/03/18 03:30:41;;;;;;;;;;;;;;;;;;;;;
2022/03/18 03:33:08;;;;;;;14.10;2.90;;;;;;;9.15;62.75;102600.66;5126153;28;20558;-64
2022/03/18 03:35:37;;;;;;;10.97;3.13;;;;;;;9.37;62.38;102598.50;5129176;28;20621;-64
2022/03/18 03:38:04;;;;;;;11.10;3.53;;;;;;;9.49;62.02;102602.25;5128405;28;20212;-64
2022/03/18 03:40:32;;;;;;;12.87;3.27;;;;;;;9.25;62.71;102603.63;5111235;28;20230;-64
2022/03/18 03:43:08;;;;;;;12.70;3.27;;;;;;;9.42;62.22;102606.16;5107391;28;20221;-64
2022/03/18 03:45:45;;;;;;;10.33;3.73;;;;;;;9.32;62.75;102597.91;5144976;27;20633;-64
2022/03/18 03:48:18;;;;;;;13.70;3.53;;;;;;;9.42;62.35;102609.66;5108137;28;20201;-64
2022/03/18 03:50:46;;;;;;;7.77;2.70;;;;;;;9.08;63.37;102617.84;5107967;28;20285;-64
2022/03/18 03:53:20;;;;;;;7.97;2.90;;;;;;;9.24;62.78;102615.16;5116408;28;20223;-64
2022/03/18 03:55:47;;;;;;;10.37;2.83;;;;;;;9.10;63.35;102620.41;5128234;28;20245;-64
2022/03/18 03:58:15;;;;;;;17.83;4.17;;;;;;;9.20;63.19;102617.16;5128721;28;20370;-64
2022/03/18 04:00:44;;;;;;;16.17;3.67;;;;;;;9.12;63.34;102624.69;5127649;28;20232;-64
2022/03/18 04:03:13;;;;;;;15.37;4.13;;;;;;;9.26;62.52;102614.16;5127715;28;20586;-64
2022/03/18 04:05:41;;;;;;;14.40;3.43;;;;;;;9.31;62.52;102614.75;5128818;28;20688;-64
2022/03/18 04:08:08;;;;;;;10.43;3.40;;;;;;;9.16;62.78;102628.84;5127981;28;20308;-64
2022/03/18 04:10:42;;;;;;;9.83;3.60;;;;;;;9.19;62.96;102631.31;5128860;28;20237;-64
2022/03/18 04:13:10;;;;;;;19.50;4.00;;;;;;;9.17;63.00;102633.19;5126839;28;20245;-64
2022/03/18 04:15:38;;;;;;;17.77;4.10;;;;;;;9.02;63.42;102636.72;5127974;28;20199;-64
2022/03/18 04:18:08;;;;;;;9.47;4.30;;;;;;;8.87;63.83;102643.72;5128707;27;20209;-64
2022/03/18 04:20:35;;;;;;;16.13;3.87;;;;;;;9.07;63.61;102640.81;5130409;27;20319;-64
2022/03/18 04:23:03;;;;;;;14.13;4.23;;;;;;;8.93;63.55;102640.72;5131008;27;20319;-64
2022/03/18 04:25:31;;;;;;;14.63;3.90;;;;;;;9.07;63.28;102650.53;5131453;27;20205;-64
2022/03/18 04:28:00;;;;;;;11.43;3.67;;;;;;;9.09;63.23;102647.81;5131561;27;20581;-64
2022/03/18 04:30:27;;;;;;;13.60;3.60;;;;;;;9.04;63.31;102661.31;5131893;27;20219;-64
2022/03/18 04:32:55;;;;;;;11.73;3.97;;;;;;;8.94;63.42;102662.75;5131093;27;20213;-64
2022/03/18 04:35:24;;;;;;;15.33;4.00;;;;;;;8.98;63.58;102677.50;5131457;27;20719;-64
2022/03/18 04:37:52;;;;;;;12.87;3.73;;;;;;;8.70;64.34;102674.69;5131682;27;20213;-64
2022/03/18 04:40:20;;;;;;;19.03;4.13;;;;;;;8.78;64.79;102688.34;5115711;27;20309;-65
2022/03/18 04:42:47;;;;;;;15.23;3.50;;;;;;;8.91;63.97;102687.59;5113427;27;20210;-65
2022/03/18 04:45:16;;;;;;;18.17;4.43;;;;;;;8.76;64.65;102687.56;5147127;27;20247;-65
2022/03/18 04:47:44;;;;;;;13.70;4.37;;;;;;;8.80;64.49;102691.75;5152298;27;20211;-64
2022/03/18 04:50:12;;;;;;;12.90;4.07;;;;;;;8.72;64.82;102696.59;5137437;27;20312;-64
2022/03/18 04:52:41;;;;;;;13.40;4.60;;;;;;;8.61;64.75;102692.75;5111390;28;20239;-64
2022/03/18 04:55:10;;;;;;;13.50;3.97;;;;;;;8.65;64.79;102696.94;5110914;28;20221;-64
2022/03/18 04:57:38;;;;;;;16.10;4.33;;;;;;;8.64;65.12;102695.22;5110675;28;20337;-64
2022/03/18 05:00:07;;;;;;;13.60;4.00;;;;;;;8.88;64.32;102700.13;5111064;28;20209;-64
2022/03/18 05:02:36;;;;;;;10.93;3.47;;;;;;;8.67;64.96;102703.00;5111398;27;20679;-64
2022/03/18 05:05:05;;;;;;;14.10;4.50;;;;;;;8.64;65.35;102716.38;5130735;27;20209;-64
2022/03/18 05:07:33;;;;;;;13.67;4.30;;;;;;;8.49;65.91;102709.25;5130983;27;20201;-64
2022/03/18 05:10:02;;;;;;;10.93;4.57;;;;;;;8.57;65.54;102712.34;5131691;27;20219;-63
2022/03/18 05:12:31;;;;;;;11.93;3.90;;;;;;;8.67;65.30;102721.50;5130729;27;20211;-65
2022/03/18 05:14:59;;;;;;;13.20;4.00;;;;;;;8.39;65.80;102721.25;5130034;27;20286;-64
2022/03/18 05:17:27;;;;;;;17.67;4.20;;;;;;;8.45;65.94;102720.91;5129785;27;20247;-65
2022/03/18 05:20:00;;;;;;;13.13;4.20;;;;;;;8.54;65.65;102731.00;5129884;27;20261;-64
2022/03/18 05:22:27;;;;;;;12.30;4.77;;;;;;;8.65;65.51;102733.09;5130324;27;20256;-64
2022/03/18 05:24:55;;;;;;;20.00;5.13;;;;;;;8.76;65.13;102730.75;5115252;27;20653;-64
2022/03/18 05:27:24;;;;;;;13.17;4.30;;;;;;;8.85;64.50;102726.75;5132461;27;20213;-64
2022/03/18 05:29:52;;;;;;;13.97;4.77;;;;;;;8.86;64.48;102729.31;5130099;27;20212;-64
2022/03/18 05:32:20;;;;;;;13.87;4.73;;;;;;;8.58;65.31;102739.66;5130833;27;20240;-64
2022/03/18 05:34:48;;;;;;;11.10;4.43;;;;;;;8.68;64.99;102738.25;5130602;27;20292;-64
2022/03/18 05:37:16;;;;;;;12.70;4.27;;;;;;;8.62;65.41;102739.41;5131148;27;20587;-65
2022/03/18 05:39:43;;;;;;;17.50;5.00;;;;;;;8.69;65.15;102737.31;5129683;27;20201;-64
2022/03/18 05:42:11;;;;;;;16.70;5.13;;;;;;;8.64;65.41;102747.25;5131134;27;20714;-64
2022/03/18 05:44:40;;;;;;;12.63;4.27;;;;;;;8.48;65.90;102751.63;5130395;27;20205;-64
2022/03/18 05:47:09;;;;;;;16.53;4.50;;;;;;;8.48;65.98;102749.84;5110508;28;20734;-64
2022/03/18 05:49:44;;;;;;;17.20;4.73;;;;;;;8.45;66.31;102757.06;5110784;28;20194;-63
2022/03/18 05:52:12;;;;;;;11.63;4.80;;;;;;;8.44;66.14;102756.25;5111072;27;20244;-65
2022/03/18 05:54:42;;;;;;;15.13;5.10;;;;;;;8.49;65.99;102759.50;5130730;27;20565;-65
2022/03/18 05:57:11;;;;;;;10.43;4.50;;;;;;;8.45;66.05;102765.88;5131462;27;20247;-64
2022/03/18 05:59:42;;;;;;;12.23;4.40;;;;;;;8.79;64.98;102761.50;5131161;27;20201;-64
2022/03/18 06:02:11;;;;;;;14.70;5.03;;;;;;;8.60;65.12;102762.44;5130059;27;20209;-64
2022/03/18 06:04:39;;;;;;;18.40;5.27;;;;;;;8.62;65.33;102759.69;5129439;27;20713;-64
2022/03/18 06:07:07;;;;;;;14.60;4.37;;;;;;;8.46;65.77;102766.72;5130442;27;20270;-64
2022/03/18 06:12:23;;;;;;;11.90;5.13;;;;;;;8.50;65.82;102777.09;5132616;27;20624;-64
2022/03/18 06:14:52;;;;;;;17.43;5.30;;;;;;;8.28;66.53;102785.19;5126024;27;20275;-65
2022/03/18 06:17:20;;;;;;;13.23;5.20;;;;;;;8.39;66.13;102779.41;5129361;27;20295;-64
2022/03/18 06:19:47;;;;;;;11.67;5.43;;;;;;;8.39;65.92;102789.13;5129596;27;20197;-64
2022/03/18 06:22:15;;;;;;;19.03;6.63;;;;;;;8.02;67.36;102780.34;5125360;27;20872;-64
2022/03/18 06:24:45;;;;;;;17.27;4.93;;;;;;;8.07;67.91;102799.50;5129088;27;20212;-63
2022/03/18 06:27:13;;;;;;;15.47;6.07;;;;;;;8.34;66.52;102789.38;5129542;27;20239;-64
2022/03/18 06:29:43;;;;;;;13.03;5.03;;;;;;;8.45;66.15;102805.53;5129783;27;20203;-63
2022/03/18 06:32:12;;;;;;;14.20;5.53;;;;;;;8.26;66.73;102799.44;5129777;27;20895;-64
2022/03/18 06:34:45;;;;;;;12.07;5.97;;;;;;;8.39;66.58;102805.84;5129867;27;20192;-64
2022/03/18 06:37:13;;;;;;;13.03;5.17;;;;;;;8.34;66.89;102807.03;5130254;27;20687;-65
2022/03/18 06:39:40;;;;;;;21.23;5.70;;;;;;;8.51;66.42;102809.69;5129755;27;20725;-64
2022/03/18 06:42:09;;;;;;;14.90;5.40;;;;;;;8.34;66.76;102813.16;5128093;27;20761;-64
2022/03/18 06:44:36;;;;;;;14.27;4.97;;;;;;;8.32;66.83;102817.69;5139561;27;20691;-64
2022/03/18 06:47:05;;;;;;;16.60;5.50;;;;;;;8.64;65.84;102823.97;5149871;27;20224;-65
2022/03/18 06:49:34;;;;;;;17.50;5.20;;;;;;;8.52;66.26;102833.41;5150449;27;20296;-63
2022/03/18 06:52:04;;;;;;;16.30;5.53;;;;;;;8.52;66.60;102833.41;5145926;27;20243;-64
2022/03/18 06:54:32;;;;;;;28.10;6.37;;;;;;;8.48;66.39;102836.25;5127965;27;20201;-64
2022/03/18 06:56:59;;;;;;;18.00;6.10;;;;;;;8.50;66.72;102842.34;5129199;27;20205;-65
2022/03/18 06:59:27;;;;;;;10.77;4.80;;;;;;;8.53;66.23;102835.09;5129026;27;20250;-64
2022/03/18 07:01:55;;;;;;;17.50;5.60;;;;;;;8.69;66.14;102845.75;5129341;27;20267;-64
2022/03/18 07:04:23;;;;;;;14.97;5.20;;;;;;;8.67;66.14;102844.97;5128717;27;20212;-65
2022/03/18 07:06:52;;;;;;;16.43;6.20;;;;;;;8.76;65.64;102849.81;5129538;27;20620;-64
2022/03/18 07:09:31;;;;;;;14.57;4.97;;;;;;;8.89;65.22;102860.59;5129402;27;20212;-64
2022/03/18 07:11:59;;;;;;;17.27;5.87;;;;;;;8.72;65.60;102855.31;5129626;27;20235;-65
2022/03/18 07:14:27;;;;;;;11.03;5.40;;;;;;;8.62;65.94;102862.84;5127865;27;20245;-64
2022/03/18 07:19:40;;;;;;;15.77;5.17;;;;;;;8.66;65.85;102867.94;5128617;27;20584;-64
2022/03/18 07:22:09;;;;;;;14.20;5.73;;;;;;;8.70;65.77;102863.34;5128629;27;20229;-64
2022/03/18 07:24:36;;;;;;;14.13;5.53;;;;;;;8.40;66.38;102868.38;5126873;28;20208;-63
2022/03/18 07:27:05;;;;;;;12.20;5.67;;;;;;;8.84;65.11;102860.00;5129339;28;20202;-66
2022/03/18 07:29:32;;;;;;;13.87;6.10;;;;;;;8.68;65.16;102858.13;5128755;28;20255;-63
2022/03/18 07:32:00;;;;;;;11.63;5.60;;;;;;;8.74;65.53;102864.03;5128737;28;20661;-64
2022/03/18 07:34:28;;;;;;;14.17;6.17;;;;;;;8.93;64.82;102863.03;5127824;28;20209;-65
2022/03/18 07:36:56;;;;;;;14.50;5.50;;;;;;;9.21;64.25;102867.72;5127753;28;20710;-65
2022/03/18 07:39:25;;;;;;;14.90;5.53;;;;;;;9.11;64.38;102869.16;5125256;28;20216;-63
2022/03/18 07:41:53;;;;;;;14.20;5.80;;;;;;;9.19;63.96;102866.94;5127776;28;20292;-64
2022/03/18 07:44:20;;;;;;;15.80;6.50;;;;;;;8.91;64.48;102864.88;5135804;27;20211;-65
2022/03/18 07:46:48;;;;;;;14.73;5.90;;;;;;;9.25;63.65;102885.16;5148677;27;20585;-64
2022/03/18 07:49:16;;;;;;;14.10;5.40;;;;;;;9.29;64.06;102878.75;5141909;27;20685;-64
2022/03/18 07:51:43;;;;;;;15.27;6.63;;;;;;;9.16;63.95;102887.41;5128764;28;20201;-65
2022/03/18 07:54:11;;;;;;;13.67;5.27;;;;;;;8.98;64.64;102878.66;5130699;27;20208;-65
2022/03/18 07:56:40;;;;;;;13.10;5.73;;;;;;;9.37;63.42;102876.56;5132973;27;20209;-65
2022/03/18 07:59:08;;;;;;;13.87;5.43;;;;;;;9.42;63.36;102874.50;5133379;27;20598;-64
2022/03/18 08:01:38;;;;;;;13.60;6.00;;;;;;;9.30;63.62;102880.47;5132675;27;20297;-65
2022/03/18 08:04:09;;;;;;;19.43;7.57;;;;;;;9.57;62.71;102885.25;5131180;27;20229;-64
2022/03/18 08:06:37;;;;;;;17.67;6.20;;;;;;;9.70;62.39;102883.63;5131767;27;20237;-64
2022/03/18 08:09:05;;;;;;;14.47;5.70;;;;;;;9.54;62.49;102885.38;5132006;27;20308;-65
2022/03/18 08:11:33;;;;;;;15.90;6.30;;;;;;;9.54;62.86;102888.03;5131246;27;20204;-65
2022/03/18 08:14:02;;;;;;;18.67;6.53;;;;;;;9.63;62.20;102887.53;5129969;27;20588;-65
2022/03/18 08:16:30;;;;;;;16.90;6.97;;;;;;;9.93;61.46;102899.13;5131926;27;20206;-65
2022/03/18 08:18:58;;;;;;;16.53;5.90;;;;;;;9.93;61.47;102900.91;5131975;27;20254;-65
2022/03/18 08:21:25;;;;;;;19.80;6.93;;;;;;;9.60;62.10;102893.84;5131446;27;20511;-65
2022/03/18 08:23:53;;;;;;;13.97;5.07;;;;;;;9.96;61.32;102895.44;5131696;27;20232;-65
2022/03/18 08:26:21;;;;;;;19.60;6.40;;;;;;;9.96;60.97;102896.28;5131790;27;20217;-64
2022/03/18 08:28:49;;;;;;;14.43;6.20;;;;;;;10.23;59.87;102903.66;5131895;27;20214;-63
2022/03/18 08:31:18;;;;;;;14.47;6.37;;;;;;;10.48;59.49;102903.97;5131356;27;20289;-64
2022/03/18 08:33:45;;;;;;;17.13;6.10;;;;;;;10.61;58.45;102897.00;5131207;27;20207;-64
2022/03/18 08:36:27;;;;;;;15.60;6.37;;;;;;;11.12;57.68;102894.84;5132115;27;20186;-65
2022/03/18 08:38:54;;;;;;;13.20;5.93;;;;;;;11.48;55.95;102908.53;5127865;27;20201;-64
2022/03/18 08:41:22;;;;;;;15.77;6.23;;;;;;;11.39;56.56;102908.25;5111220;28;20212;-64
2022/03/18 08:43:50;;;;;;;17.27;6.37;;;;;;;11.15;57.14;102905.31;5116920;27;20217;-65
2022/03/18 08:46:19;;;;;;;15.70;5.60;;;;;;;11.70;55.12;102908.03;5110165;28;20638;-64
2022/03/18 08:48:46;;;;;;;13.27;6.00;;;;;;;11.76;54.67;102906.84;5121512;27;20217;-64
2022/03/18 08:51:15;;;;;;;13.43;5.67;;;;;;;12.17;53.96;102906.84;5130981;27;20209;-65
2022/03/18 08:53:43;;;;;;;18.07;6.60;;;;;;;12.82;51.55;102910.50;5130346;27;20197;-63
2022/03/18 08:56:10;;;;;;;13.67;5.57;;;;;;;12.77;51.87;102908.13;5130850;27;20214;-65
2022/03/18 08:58:38;;;;;;;15.07;6.10;;;;;;;13.34;50.12;102902.47;5131007;27;20480;-65
2022/03/18 09:01:22;;;;;;;17.50;7.00;;;;;;;12.99;50.89;102912.88;5130695;27;20285;-64
2022/03/18 09:03:50;;;;;;;14.07;5.67;;;;;;;13.59;49.78;102906.91;5130324;27;20225;-65
2022/03/18 09:06:18;;;;;;;15.43;6.53;;;;;;;15.69;45.70;102907.91;5129942;27;20423;-65
2022/03/18 09:08:45;;;;;;;17.73;6.37;;;;;;;17.07;41.17;102892.81;5129702;27;20296;-65
2022/03/18 09:11:13;;;;;;;14.83;6.03;;;;;;;17.18;39.93;102895.44;5130649;27;20445;-65
2022/03/18 09:13:41;;;;;;;13.77;5.50;;;;;;;16.92;40.93;102902.19;5129628;27;20312;-64
2022/03/18 09:16:10;;;;;;;14.77;6.13;;;;;;;17.98;39.49;102900.03;5131075;27;20198;-65
2022/03/18 09:18:59;;;;;;;12.23;6.10;;;;;;;19.01;37.85;102898.50;5130305;27;20646;-65
2022/03/18 09:21:26;;;;;;;16.50;5.47;;;;;;;19.37;36.63;102901.38;5130335;27;20493;-65
2022/03/18 09:23:57;;;;;;;14.07;5.77;;;;;;;19.84;35.44;102905.75;5128607;27;20253;-65
2022/03/18 09:26:31;;;;;;;14.40;5.90;;;;;;;20.91;33.35;102905.78;5130655;27;20198;-66
2022/03/18 09:28:59;;;;;;;15.47;5.43;;;;;;;20.32;34.52;102915.34;5130092;27;20213;-64
2022/03/18 09:31:26;;;;;;;15.03;6.33;;;;;;;20.11;34.47;102910.25;5127212;27;20208;-65
2022/03/18 09:33:54;;;;;;;13.27;5.50;;;;;;;18.99;36.49;102913.97;5129663;27;20197;-65
2022/03/18 09:36:23;;;;;;;14.00;6.10;;;;;;;18.74;37.21;102926.13;5130278;27;20227;-65
2022/03/18 09:38:52;;;;;;;16.27;5.85;;;;;;;18.54;36.72;102918.19;5129835;27;20697;-65
2022/03/18 09:41:19;;;;;;;13.30;5.13;;;;;;;17.97;38.02;102919.78;5130587;27;20209;-64
2022/03/18 09:43:47;;;;;;;11.93;5.73;;;;;;;17.24;39.18;102916.34;5132702;27;20339;-65
2022/03/18 09:46:16;;;;;;;14.30;5.53;;;;;;;17.48;39.25;102918.75;5130052;27;20226;-65
2022/03/18 09:49:01;;;;;;;14.93;6.37;;;;;;;17.37;40.27;102917.97;5130120;27;20229;-65
2022/03/18 09:51:30;;;;;;;16.27;5.97;;;;;;;17.49;39.32;102919.59;5130322;27;20209;-65
2022/03/18 09:54:17;;;;;;;11.80;6.13;;;;;;;17.42;39.65;102918.41;5128534;27;20193;-65
2022/03/18 09:56:47;;;;;;;16.60;5.43;;;;;;;17.56;39.62;102918.06;5130228;27;20209;-65
2022/03/18 09:59:15;;;;;;;12.30;5.50;;;;;;;18.10;37.99;102917.72;5130713;27;20654;-65
2022/03/18 10:01:43;;;;;;;13.27;5.63;;;;;;;19.60;35.57;102921.59;5130266;27;20705;-66
2022/03/18 10:04:13;;;;;;;13.00;5.83;;;;;;;20.93;33.53;102914.59;5129491;27;20749;-66
2022/03/18 10:06:45;;;;;;;12.53;5.53;;;;;;;20.25;34.78;102917.81;5125182;27;20202;-66
2022/03/18 10:09:27;;;;;;;12.70;5.15;;;;;;;19.25;36.50;102926.78;5129562;27;20572;-66
2022/03/18 10:11:55;;;;;;;13.95;6.00;;;;;;;18.75;36.65;102924.28;5130008;27;20212;-65
2022/03/18 10:14:25;;;;;;;10.93;5.53;;;;;;;19.53;35.96;102913.22;5128341;27;20233;-65
2022/03/18 10:16:54;;;;;;;13.68;5.13;;;;;;;18.46;37.67;102928.81;5129263;27;20738;-65
2022/03/18 10:19:25;;;;;;;16.65;6.53;;;;;;;18.05;38.43;102919.97;5129708;27;20213;-66
2022/03/18 10:21:56;;;;;;;13.63;5.97;;;;;;;20.13;35.37;102921.72;5129382;27;20209;-64
2022/03/18 10:24:27;;;;;;;11.63;5.68;;;;;;;19.99;35.10;102918.69;5128084;27;20233;-65
2022/03/18 10:27:10;;;;;;;13.52;5.38;;;;;;;18.02;38.01;102918.41;5121735;27;20247;-65
2022/03/18 10:29:47;;;;;;;11.82;5.63;;;;;;;18.52;37.38;102920.16;5130045;27;20200;-65
2022/03/18 10:32:16;;;;;;;14.88;5.18;;;;;;;18.79;37.17;102920.34;5129479;27;20685;-64
2022/03/18 10:37:42;;;;;;;13.88;5.45;;;;;;;17.96;39.30;102913.56;5129145;27;20293;-64
2022/03/18 10:40:22;;;;;;;9.85;5.53;;;;;;;19.09;37.40;102914.75;5129008;27;20280;-70
2022/03/18 10:42:57;;;;;;;13.90;6.20;;;;;;;18.70;37.16;102926.56;5128217;27;20201;-64
2022/03/18 10:45:25;;;;;;;14.10;5.80;;;;;;;18.01;38.63;102923.91;5128952;27;20259;-65
2022/03/18 10:47:54;;;;;;;14.50;5.97;;;;;;;17.51;40.18;102917.63;5129116;27;20322;-65
2022/03/18 10:50:24;;;;;;;13.75;5.70;;;;;;;18.07;38.81;102915.31;5128821;27;20578;-65
2022/03/18 10:53:08;;;;;;;11.10;5.85;;;;;;;17.73;39.41;102922.00;5128767;27;20190;-65
2022/03/18 10:55:38;;;;;;;11.25;5.75;;;;;;;18.23;39.35;102926.34;5129211;27;20296;-64
2022/03/18 10:58:10;;;;;;;12.00;5.72;;;;;;;19.27;37.29;102916.69;5128896;27;20209;-65
2022/03/18 11:00:40;;;;;;;12.55;5.55;;;;;;;18.14;38.35;102924.50;5129578;27;20205;-66
2022/03/18 11:03:08;;;;;;;9.93;5.57;;;;;;;18.15;38.57;102923.50;5126068;27;20270;-65
2022/03/18 11:05:51;;;;;;;12.82;6.00;;;;;;;18.34;38.83;102926.25;5128882;27;20237;-64
2022/03/18 11:08:22;;;;;;;17.33;6.18;;;;;;;17.41;40.05;102917.59;5129487;27;20571;-65
2022/03/18 11:13:52;;;;;;;15.38;7.10;;;;;;;16.88;40.73;102928.41;5128228;27;20340;-65
2022/03/18 11:16:23;;;;;;;17.30;6.47;;;;;;;17.45;40.78;102920.84;5128947;27;20715;-64
2022/03/18 11:18:50;;;;;;;14.70;6.43;;;;;;;18.14;39.60;102920.97;5128962;27;20201;-67
2022/03/18 11:21:21;;;;;;;11.23;5.32;;;;;;;18.23;39.12;102920.97;5128893;27;20208;-66
2022/03/18 11:23:55;;;;;;;13.15;5.85;;;;;;;17.87;39.42;102918.91;5128447;27;20292;-67
2022/03/18 11:26:23;;;;;;;15.65;6.47;;;;;;;18.22;38.98;102913.06;5129381;28;20296;-66
2022/03/18 11:29:09;;;;;;;13.40;7.05;;;;;;;19.32;36.37;102904.53;5128106;27;20207;-65
2022/03/18 11:31:39;;;;;;;11.25;6.30;;;;;;;19.62;36.33;102910.66;5114741;27;20282;-65
2022/03/18 11:34:09;;;;;;;11.45;6.03;;;;;;;18.87;36.59;102904.34;5128608;28;20288;-65
2022/03/18 11:36:49;;;;;;;;;;;;;;;;;;;;;
2022/03/18 11:39:22;;;;;;;12.57;6.18;;;;;;;19.19;37.42;102903.97;5130225;27;20566;-65
2022/03/18 11:41:57;;;;;;;12.32;6.05;;;;;;;19.48;37.24;102909.31;5126868;28;20237;-64
2022/03/18 11:44:45;;;;;;;11.98;5.97;;;;;;;20.45;35.45;102899.69;5127962;28;20993;-65
2022/03/18 11:47:45;;;;;;;13.77;6.05;;;;;;;20.78;34.41;102900.78;5107721;28;20229;-64
2022/03/18 11:50:42;;;;;;;13.52;5.97;;;;;;;20.11;35.50;102906.72;5108875;28;20216;-65
2022/03/18 11:53:13;;;;;;;13.20;5.75;;;;;;;20.11;35.40;102898.63;5127815;28;20658;-65
2022/03/18 11:55:45;;;;;;;12.13;5.75;;;;;;;19.63;36.25;102902.44;5128095;28;20650;-65
2022/03/18 11:58:32;;;;;;;11.57;5.38;;;;;;;18.56;37.76;102900.09;5127954;28;20213;-65